createdAt,value
2022-12-19T00:02:47.297Z,40.97
2022-12-19T00:05:51.254Z,36.43
2022-12-19T00:08:55.105Z,36.87
2022-12-19T00:11:57.413Z,37.67
2022-12-19T00:14:59.339Z,36.93
2022-12-19T00:18:04.268Z,39.73
2022-12-19T00:21:07.021Z,37.07
2022-12-19T00:24:18.394Z,37.70
2022-12-19T00:27:23.753Z,38.00
2022-12-19T00:30:25.990Z,37.97
2022-12-19T00:33:28.326Z,34.73
2022-12-19T00:36:33.521Z,37.03
2022-12-19T00:39:35.492Z,37.73
2022-12-19T00:42:37.604Z,38.63
2022-12-19T00:45:39.570Z,37.00
2022-12-19T00:48:42.848Z,38.93
2022-12-19T00:51:44.710Z,36.80
2022-12-19T00:54:47.614Z,39.00
2022-12-19T00:57:49.943Z,37.63
2022-12-19T01:00:54.719Z,35.50
2022-12-19T01:04:27.197Z,39.33
2022-12-19T01:07:20.817Z,39.13
2022-12-19T01:10:22.710Z,37.83
2022-12-19T01:13:26.782Z,39.20
2022-12-19T01:16:28.704Z,38.77
2022-12-19T01:19:30.867Z,39.27
2022-12-19T01:22:32.918Z,41.20
2022-12-19T01:25:36.669Z,37.23
2022-12-19T01:28:40.491Z,36.80
2022-12-19T01:31:42.781Z,39.53
2022-12-19T01:34:44.777Z,38.13
2022-12-19T01:37:46.945Z,36.17
2022-12-19T01:40:56.672Z,38.77
2022-12-19T01:44:04.605Z,39.77
2022-12-19T01:47:12.818Z,32.47
2022-12-19T01:50:32.202Z,40.90
2022-12-19T01:53:49.183Z,40.80
2022-12-19T01:56:55.841Z,36.87
2022-12-19T02:00:00.102Z,38.70
2022-12-19T02:03:12.420Z,40.80
2022-12-19T02:06:15.164Z,41.17
2022-12-19T02:09:17.788Z,38.07
2022-12-19T02:12:19.809Z,40.27
2022-12-19T02:15:23.926Z,37.23
2022-12-19T02:18:51.925Z,40.73
2022-12-19T02:22:18.998Z,40.57
2022-12-19T02:25:58.624Z,41.20
2022-12-19T02:29:27.111Z,38.77
2022-12-19T02:33:01.886Z,40.20
2022-12-19T02:36:24.883Z,38.90
2022-12-19T02:39:50.896Z,39.70
2022-12-19T02:42:59.603Z,38.47
2022-12-19T02:46:04.315Z,40.67
2022-12-19T02:49:07.097Z,41.23
2022-12-19T02:52:19.264Z,38.43
2022-12-19T02:55:25.948Z,39.87
2022-12-19T02:58:33.804Z,39.17
2022-12-19T03:01:56.379Z,40.80
2022-12-19T03:05:05.595Z,39.53
2022-12-19T03:08:35.169Z,38.70
2022-12-19T03:11:41.600Z,39.63
2022-12-19T03:14:44.607Z,39.27
2022-12-19T03:17:47.251Z,37.20
2022-12-19T03:21:06.848Z,37.87
2022-12-19T03:24:11.423Z,36.23
2022-12-19T03:27:20.884Z,37.10
2022-12-19T03:30:23.055Z,37.60
2022-12-19T03:33:27.720Z,34.67
2022-12-19T03:36:36.575Z,35.70
2022-12-19T03:39:42.849Z,37.13
2022-12-19T03:43:06.218Z,36.37
2022-12-19T03:46:17.914Z,34.93
2022-12-19T03:49:19.993Z,35.00
2022-12-19T03:52:43.631Z,36.20
2022-12-19T03:55:54.151Z,35.13
2022-12-19T03:59:20.476Z,34.50
2022-12-19T04:02:23.842Z,33.73
2022-12-19T04:05:28.013Z,32.37
2022-12-19T04:08:31.483Z,32.37
2022-12-19T04:11:43.969Z,32.97
2022-12-19T04:14:46.341Z,30.53
2022-12-19T04:17:56.465Z,32.97
2022-12-19T04:21:27.069Z,32.17
2022-12-19T04:24:34.197Z,30.87
2022-12-19T04:27:39.983Z,31.50
2022-12-19T04:30:45.072Z,33.23
2022-12-19T04:33:47.197Z,27.30
2022-12-19T04:36:50.965Z,29.77
2022-12-19T04:39:53.452Z,30.33
2022-12-19T04:42:55.960Z,29.53
2022-12-19T04:45:58.077Z,29.13
2022-12-19T04:49:00.284Z,29.90
2022-12-19T04:52:02.254Z,30.07
2022-12-19T04:55:04.860Z,29.60
2022-12-19T04:58:07.393Z,31.37
2022-12-19T05:01:09.963Z,28.03
2022-12-19T05:04:12.123Z,30.30
2022-12-19T05:07:14.507Z,29.60
2022-12-19T05:10:16.459Z,28.90
2022-12-19T05:13:18.595Z,29.07
2022-12-19T05:16:20.487Z,29.30
2022-12-19T05:19:22.799Z,27.97
2022-12-19T05:22:27.591Z,27.60
2022-12-19T05:25:29.778Z,27.97
2022-12-19T05:28:32.737Z,25.20
2022-12-19T05:31:35.084Z,27.77
2022-12-19T05:34:37.046Z,27.77
2022-12-19T05:37:39.211Z,26.33
2022-12-19T05:40:41.137Z,26.57
2022-12-19T05:43:45.052Z,27.73
2022-12-19T05:46:47.043Z,26.13
2022-12-19T05:49:49.352Z,25.37
2022-12-19T05:52:51.620Z,26.30
2022-12-19T05:56:08.872Z,27.03
2022-12-19T05:59:11.865Z,25.70
2022-12-19T06:02:14.214Z,25.27
2022-12-19T06:05:17.112Z,25.63
2022-12-19T06:08:19.344Z,27.47
2022-12-19T06:11:21.430Z,27.30
2022-12-19T06:14:23.671Z,26.07
2022-12-19T06:17:26.774Z,26.87
2022-12-19T06:20:29.108Z,25.47
2022-12-19T06:23:33.502Z,25.53
2022-12-19T06:26:35.772Z,26.80
2022-12-19T06:29:37.664Z,25.23
2022-12-19T06:32:39.902Z,25.03
2022-12-19T06:35:41.907Z,24.10
2022-12-19T06:38:44.391Z,25.30
2022-12-19T06:42:05.269Z,24.90
2022-12-19T06:45:07.849Z,26.10
2022-12-19T06:48:09.842Z,23.73
2022-12-19T06:51:11.973Z,24.40
2022-12-19T06:54:14.560Z,26.07
2022-12-19T06:57:17.115Z,24.83
2022-12-19T07:00:20.508Z,25.30
2022-12-19T07:03:26.826Z,26.00
2022-12-19T07:06:28.779Z,26.50
2022-12-19T07:09:31.741Z,26.80
2022-12-19T07:12:33.759Z,24.93
2022-12-19T07:15:36.778Z,25.00
2022-12-19T07:18:40.868Z,24.67
2022-12-19T07:21:43.489Z,22.97
2022-12-19T07:24:45.473Z,23.93
2022-12-19T07:27:48.171Z,24.47
2022-12-19T07:30:50.107Z,23.73
2022-12-19T07:33:52.335Z,22.87
2022-12-19T07:36:54.278Z,23.83
2022-12-19T07:39:56.506Z,25.53
2022-12-19T07:43:05.842Z,23.33
2022-12-19T07:46:08.186Z,22.33
2022-12-19T07:49:10.174Z,26.07
2022-12-19T07:52:12.327Z,24.70
2022-12-19T07:55:15.929Z,24.83
2022-12-19T07:58:18.333Z,25.20
2022-12-19T08:01:20.495Z,22.90
2022-12-19T08:04:22.841Z,24.50
2022-12-19T08:07:24.743Z,23.50
2022-12-19T08:10:27.009Z,23.83
2022-12-19T08:13:35.546Z,23.93
2022-12-19T08:17:10.846Z,22.67
2022-12-19T08:20:02.124Z,25.10
2022-12-19T08:23:05.007Z,22.90
2022-12-19T08:26:12.682Z,24.20
2022-12-19T08:29:14.908Z,22.93
2022-12-19T08:32:20.740Z,24.33
2022-12-19T08:35:23.603Z,23.93
2022-12-19T08:38:25.581Z,23.57
2022-12-19T08:41:27.894Z,25.30
2022-12-19T08:44:30.704Z,25.07
2022-12-19T08:47:32.948Z,24.07
2022-12-19T08:50:34.875Z,24.00
2022-12-19T08:53:38.841Z,23.53
2022-12-19T08:56:45.301Z,23.77
2022-12-19T08:59:48.854Z,20.83
2022-12-19T09:02:51.685Z,22.80
2022-12-19T09:06:07.894Z,23.33
2022-12-19T09:09:12.468Z,23.33
2022-12-19T09:12:16.265Z,23.60
2022-12-19T09:15:18.243Z,23.90
2022-12-19T09:18:20.398Z,24.77
2022-12-19T09:21:29.456Z,23.33
2022-12-19T09:24:31.744Z,24.40
2022-12-19T09:28:01.354Z,24.70
2022-12-19T09:31:03.309Z,24.47
2022-12-19T09:34:05.330Z,25.03
2022-12-19T09:37:10.371Z,24.50
2022-12-19T09:40:18.642Z,23.47
2022-12-19T09:43:51.889Z,22.70
2022-12-19T09:47:03.047Z,24.77
2022-12-19T09:50:22.950Z,23.17
2022-12-19T09:53:54.327Z,21.13
2022-12-19T09:57:03.006Z,23.20
2022-12-19T10:00:11.577Z,22.33
2022-12-19T10:03:29.797Z,22.77
2022-12-19T10:07:14.499Z,23.30
2022-12-19T10:12:34.882Z,21.93
2022-12-19T10:13:59.430Z,22.47
2022-12-19T10:17:52.294Z,22.93
2022-12-19T10:25:20.394Z,21.63
2022-12-19T10:28:53.224Z,20.43
2022-12-19T10:32:05.997Z,20.93
2022-12-19T10:35:14.921Z,19.27
2022-12-19T10:38:38.809Z,19.30
2022-12-19T10:41:46.304Z,20.60
2022-12-19T10:44:50.471Z,21.43
2022-12-19T10:47:57.594Z,22.67
2022-12-19T10:51:05.216Z,19.03
2022-12-19T10:54:09.290Z,19.63
2022-12-19T10:57:18.748Z,21.33
2022-12-19T11:00:20.741Z,20.23
2022-12-19T11:03:23.151Z,20.67
2022-12-19T11:06:46.362Z,19.83
2022-12-19T11:10:27.421Z,21.20
2022-12-19T11:17:24.290Z,20.50
2022-12-19T11:22:45.429Z,19.47
2022-12-19T11:29:39.759Z,19.03
2022-12-19T11:29:41.738Z,19.83
2022-12-19T11:30:43.747Z,19.10
2022-12-19T11:34:35.697Z,20.47
2022-12-19T11:38:06.139Z,20.13
2022-12-19T11:41:17.110Z,18.93
2022-12-19T11:44:30.317Z,20.90
2022-12-19T11:48:12.974Z,20.37
2022-12-19T11:51:56.317Z,19.43
2022-12-19T11:55:18.229Z,20.37
2022-12-19T11:58:22.184Z,19.60
2022-12-19T12:01:43.017Z,20.13
2022-12-19T12:05:04.162Z,19.40
2022-12-19T12:10:22.882Z,20.43
2022-12-19T12:21:03.693Z,19.83
2022-12-19T12:26:08.444Z,18.33
2022-12-19T12:31:26.998Z,19.17
2022-12-19T12:31:47.314Z,21.07
2022-12-19T12:31:50.996Z,19.80
2022-12-19T12:31:54.111Z,20.77
2022-12-19T12:35:46.916Z,20.07
2022-12-19T12:38:18.314Z,18.77
2022-12-19T12:40:59.509Z,18.90
2022-12-19T12:44:10.750Z,20.20
2022-12-19T12:47:22.867Z,22.60
2022-12-19T12:50:26.462Z,21.20
2022-12-19T12:53:35.080Z,19.73
2022-12-19T12:56:37.769Z,20.37
2022-12-19T12:59:46.273Z,20.83
2022-12-19T13:03:18.816Z,20.87
2022-12-19T13:06:34.983Z,21.03
2022-12-19T13:09:37.228Z,20.23
2022-12-19T13:13:00.497Z,19.63
2022-12-19T13:16:40.840Z,21.87
2022-12-19T13:20:14.727Z,22.43
2022-12-19T13:23:42.562Z,20.17
2022-12-19T13:26:49.382Z,21.40
2022-12-19T13:30:01.337Z,22.63
2022-12-19T13:33:03.660Z,22.57
2022-12-19T13:39:58.421Z,22.27
2022-12-19T13:40:32.522Z,21.43
2022-12-19T13:43:48.272Z,22.57
2022-12-19T13:46:50.621Z,23.57
2022-12-19T13:49:52.793Z,21.50
2022-12-19T13:52:55.367Z,23.07
2022-12-19T13:56:03.425Z,20.67
2022-12-19T13:59:05.791Z,21.67
2022-12-19T14:02:16.748Z,20.63
2022-12-19T14:06:14.928Z,20.83
2022-12-19T14:11:24.293Z,21.63
2022-12-19T14:13:40.596Z,22.13
2022-12-19T14:16:18.491Z,20.43
2022-12-19T14:19:24.258Z,19.10
2022-12-19T14:22:27.109Z,19.13
2022-12-19T14:28:14.511Z,18.50
2022-12-19T14:29:16.809Z,20.97
2022-12-19T14:33:46.308Z,18.03
2022-12-19T14:36:12.464Z,19.20
2022-12-19T14:39:28.331Z,20.93
2022-12-19T14:43:57.972Z,18.93
2022-12-19T14:52:51.158Z,20.63
2022-12-19T14:54:02.260Z,19.77
2022-12-19T14:54:25.518Z,21.10
2022-12-19T14:57:00.286Z,19.97
2022-12-19T15:00:34.950Z,22.73
2022-12-19T15:04:48.303Z,22.70
2022-12-19T15:07:21.906Z,21.93
2022-12-19T15:11:09.296Z,21.27
2022-12-19T15:14:53.740Z,20.60
2022-12-19T15:17:23.615Z,21.43
2022-12-19T15:20:25.832Z,19.60
2022-12-19T15:23:28.951Z,19.87
2022-12-19T15:26:34.947Z,21.17
2022-12-19T15:29:36.864Z,22.80
2022-12-19T15:32:42.196Z,21.20
2022-12-19T15:35:46.226Z,21.90
2022-12-19T15:38:49.607Z,22.30
2022-12-19T15:41:53.764Z,20.57
2022-12-19T15:44:58.021Z,24.47
2022-12-19T15:48:00.468Z,20.73
2022-12-19T15:51:03.890Z,21.70
2022-12-19T15:54:38.758Z,23.47
2022-12-19T15:57:32.701Z,19.73
2022-12-19T16:00:36.870Z,22.30
2022-12-19T16:03:40.631Z,21.50
2022-12-19T16:06:43.050Z,23.20
2022-12-19T16:09:45.510Z,23.27
2022-12-19T16:12:55.311Z,22.80
2022-12-19T16:15:58.749Z,20.40
2022-12-19T16:19:00.812Z,22.03
2022-12-19T16:22:18.539Z,21.10
2022-12-19T16:25:21.320Z,23.07
2022-12-19T16:28:30.490Z,24.50
2022-12-19T16:31:32.910Z,25.57
2022-12-19T16:34:35.493Z,23.83
2022-12-19T16:37:37.611Z,22.77
2022-12-19T16:40:41.020Z,23.00
2022-12-19T16:43:44.505Z,24.33
2022-12-19T16:46:50.811Z,23.73
2022-12-19T16:49:53.618Z,22.87
2022-12-19T16:52:56.559Z,22.03
2022-12-19T16:56:04.209Z,25.10
2022-12-19T16:59:41.817Z,23.80
2022-12-19T17:03:01.460Z,23.87
2022-12-19T17:06:07.292Z,23.97
2022-12-19T17:09:16.095Z,23.50
2022-12-19T17:12:27.019Z,24.63
2022-12-19T17:15:32.443Z,25.53
2022-12-19T17:18:41.948Z,24.97
2022-12-19T17:21:44.774Z,26.53
2022-12-19T17:24:48.549Z,25.87
2022-12-19T17:27:51.912Z,25.73
2022-12-19T17:30:59.358Z,25.67
2022-12-19T17:34:01.349Z,26.07
2022-12-19T17:37:04.990Z,24.07
2022-12-19T17:40:28.719Z,26.97
2022-12-19T17:43:30.982Z,25.80
2022-12-19T17:46:36.302Z,24.60
2022-12-19T17:49:39.015Z,26.80
2022-12-19T17:52:40.939Z,26.97
2022-12-19T17:55:43.717Z,27.73
2022-12-19T17:58:45.738Z,27.33
2022-12-19T18:01:48.201Z,28.43
2022-12-19T18:04:51.261Z,25.50
2022-12-19T18:07:53.840Z,25.37
2022-12-19T18:10:58.206Z,28.53
2022-12-19T18:14:00.351Z,27.43
2022-12-19T18:17:03.192Z,26.67
2022-12-19T18:20:31.115Z,25.13
2022-12-19T18:23:34.016Z,25.90
2022-12-19T18:26:36.176Z,26.10
2022-12-19T18:29:38.137Z,25.50
2022-12-19T18:33:05.508Z,25.00
2022-12-19T18:36:12.933Z,26.63
2022-12-19T18:39:21.539Z,27.23
2022-12-19T18:42:23.535Z,25.10
2022-12-19T18:45:31.947Z,24.83
2022-12-19T18:48:36.963Z,27.40
2022-12-19T18:51:39.707Z,26.87
2022-12-19T18:54:41.656Z,26.30
2022-12-19T18:57:46.458Z,31.87
2022-12-19T19:00:49.563Z,30.50
2022-12-19T19:03:55.493Z,31.50
2022-12-19T19:06:57.531Z,30.60
2022-12-19T19:09:59.735Z,29.17
2022-12-19T19:13:08.216Z,26.43
2022-12-19T19:16:24.661Z,28.37
2022-12-19T19:19:26.830Z,27.40
2022-12-19T19:22:29.605Z,28.53
2022-12-19T19:25:32.013Z,27.93
2022-12-19T19:28:37.310Z,27.40
2022-12-19T19:31:43.724Z,28.47
2022-12-19T19:34:46.172Z,28.77
2022-12-19T19:37:51.762Z,26.33
2022-12-19T19:40:54.092Z,27.63
2022-12-19T19:43:57.710Z,28.10
2022-12-19T19:47:00.138Z,31.60
2022-12-19T19:50:02.097Z,29.40
2022-12-19T19:53:05.137Z,29.93
2022-12-19T19:56:07.555Z,26.03
2022-12-19T19:59:09.839Z,25.90
2022-12-19T20:02:12.759Z,26.30
2022-12-19T20:05:19.664Z,26.47
2022-12-19T20:08:21.626Z,28.07
2022-12-19T20:11:23.806Z,28.70
2022-12-19T20:14:26.619Z,27.20
2022-12-19T20:17:28.826Z,26.43
2022-12-19T20:20:32.752Z,27.50
2022-12-19T20:23:35.313Z,26.47
2022-12-19T20:26:37.675Z,24.70
2022-12-19T20:29:40.037Z,23.77
2022-12-19T20:32:42.015Z,24.90
2022-12-19T20:35:44.554Z,22.63
2022-12-19T20:38:47.300Z,24.67
2022-12-19T20:41:53.348Z,25.33
2022-12-19T20:44:55.338Z,25.83
2022-12-19T20:48:01.281Z,28.30
2022-12-19T20:54:33.940Z,24.97
2022-12-19T20:57:36.370Z,25.73
2022-12-19T21:00:38.876Z,27.30
2022-12-19T21:03:43.251Z,27.13
2022-12-19T21:06:45.770Z,24.70
2022-12-19T21:09:50.125Z,25.27
2022-12-19T21:12:52.336Z,23.63
2022-12-19T21:15:59.072Z,25.90
2022-12-19T21:19:01.725Z,24.93
2022-12-19T21:22:03.909Z,22.70
2022-12-19T21:25:06.733Z,23.53
2022-12-19T21:28:08.930Z,23.10
2022-12-19T21:31:18.350Z,21.30
2022-12-19T21:34:20.435Z,23.40
2022-12-19T21:37:24.326Z,22.97
2022-12-19T21:40:26.293Z,26.77
2022-12-19T21:43:31.305Z,26.73
2022-12-19T21:46:33.684Z,23.47
2022-12-19T21:49:36.060Z,23.87
2022-12-19T21:52:38.430Z,22.70
2022-12-19T21:55:40.662Z,22.93
2022-12-19T21:58:42.884Z,23.53
2022-12-19T22:01:45.914Z,21.73
2022-12-19T22:04:51.165Z,24.67
2022-12-19T22:07:53.402Z,29.83
2022-12-19T22:10:55.503Z,26.77
2022-12-19T22:14:00.692Z,28.93
2022-12-19T22:17:02.745Z,26.33
2022-12-19T22:20:05.595Z,27.70
2022-12-19T22:23:12.919Z,25.97
2022-12-19T22:26:18.667Z,25.63
2022-12-19T22:29:20.732Z,27.37
2022-12-19T22:32:23.852Z,34.43
2022-12-19T22:35:26.792Z,29.97
2022-12-19T22:38:29.012Z,23.73
2022-12-19T22:41:33.159Z,24.67
2022-12-19T22:44:35.425Z,29.43
2022-12-19T22:47:41.892Z,25.50
2022-12-19T22:50:47.217Z,25.77
2022-12-19T22:53:49.663Z,25.43
2022-12-19T22:56:52.206Z,21.00
2022-12-19T22:59:54.231Z,25.17
2022-12-19T23:02:56.705Z,25.93
2022-12-19T23:06:01.288Z,24.80
2022-12-19T23:09:04.794Z,23.27
2022-12-19T23:12:06.762Z,23.10
2022-12-19T23:15:09.298Z,20.33
2022-12-19T23:18:11.329Z,22.80
2022-12-19T23:21:19.499Z,23.10
2022-12-19T23:24:21.420Z,24.60
2022-12-19T23:27:23.890Z,22.77
2022-12-19T23:30:25.781Z,23.50
2022-12-19T23:33:28.023Z,21.17
2022-12-19T23:37:08.886Z,22.20
2022-12-19T23:39:52.448Z,21.57
2022-12-19T23:42:54.337Z,20.40
2022-12-19T23:45:56.693Z,22.10
2022-12-19T23:48:58.604Z,22.53
2022-12-19T23:52:00.821Z,24.47
2022-12-19T23:55:02.700Z,28.77
2022-12-19T23:58:13.684Z,22.57
